This is the latest recevied weather packets stored in our database for station/object OK4PZ-5. If no packets are shown the sender has not sent any weather packets the latest 10 day(s).
| Time | Temp. | Humidity | Pressure | Rain* | Wind** | Luminosity | Snow |
|---|---|---|---|---|---|---|---|
| 1788223502 | 16.67° C | 72% | 1022 hPa | 0 mm | - | - | - |
| 1788222602 | 16.67° C | 72% | 1021 hPa | 0 mm | - | - | - |
| 1788221702 | 16.67° C | 72% | 1021 hPa | 0 mm | - | - | - |
| 1788220802 | 17.22° C | 71% | 1021 hPa | 0 mm | - | - | - |
| 1788219902 | 17.22° C | 73% | 1021 hPa | 0 mm | - | - | - |
| 1788219002 | 17.22° C | 74% | 1021 hPa | 0 mm | - | - | - |
| 1788218102 | 16.67° C | 75% | 1021 hPa | 0 mm | - | - | - |
| 1788217202 | 14.44° C | 88% | 1021 hPa | 0 mm | - | - | - |
| 1788216302 | 13.89° C | 92% | 1021 hPa | 0 mm | - | - | - |
| 1788215403 | 13.89° C | 91% | 1021 hPa | 0 mm | - | - | - |
| 1788214502 | 14.44° C | 90% | 1021 hPa | 0 mm | - | - | - |
| 1788213602 | 15° C | 89% | 1021 hPa | 0 mm | - | - | - |
| 1788212703 | 15° C | 89% | 1021 hPa | 0 mm | - | - | - |
| 1788210902 | 15.56° C | 88% | 1021 hPa | 0 mm | - | - | - |
| 1788210003 | 15° C | 89% | 1020 hPa | 0 mm | - | - | - |
| 1788209102 | 15.56° C | 89% | 1020 hPa | 0 mm | - | - | - |
| 1788207302 | 15.56° C | 87% | 1020 hPa | 0 mm | - | - | - |
| 1788206403 | 15.56° C | 87% | 1019 hPa | 0 mm | - | - | - |
| 1788205502 | 16.11° C | 86% | 1019 hPa | 0 mm | - | - | - |
| 1788204602 | 16.11° C | 85% | 1019 hPa | 0 mm | - | - | - |
| 1788203702 | 16.11° C | 84% | 1019 hPa | 0 mm | - | - | - |
| 1788202802 | 16.67° C | 83% | 1019 hPa | 0 mm | - | - | - |
| 1788201902 | 17.22° C | 79% | 1019 hPa | 0 mm | - | - | - |
| 1788201003 | 17.78° C | 78% | 1019 hPa | 0 mm | - | - | - |
| 1788200102 | 17.78° C | 75% | 1019 hPa | 0 mm | - | - | - |
* Rain latest hour (hover to see other rain measurements)
** Current wind speed in m/s (hover to see current wind gust speed)